Hit Tracker is now ESPN Home Run Tracker! Hit Tracker founder Greg Rybarczyk is now collaborating with the ESPN Stats & Information Group to continue tracking all MLB home runs, and helping baseball fans know "How Far It Really Went!™" Please credit any information on this site to ESPN Stats & Information Group. For more information and analysis on home runs, please contact founder Greg Rybarczyk. E-Mail ESPN Home Run Tracker
Main Page | Ballparks | Park Overlays | Glossary | Highlight Homers | Feedback | Bio | 3 Types of HR's | AAA Home Run Derby Last Updated: August 25, 2016, 10:35 pm PST
If you want to know "How Far It Really Went!", then you've come to the right place! Welcome to the ESPN Home Run Tracker, where you can find accurate, transparently verifiable distances for every home run hit in MLB games. Please also check out the ESPN MLB Scoreboard throughout the 2016 season! Contact us at grybar@hittrackeronline.com.
Season:
Ballpark detail for Wrigley Field
Ballpark # of Home Runs HR per game Avg.
True
Distance
Avg.
Speed
Off
Bat
Avg.
Std.
Dist.
Wrigley Field 133 2.08 395.2 102.2 392.2

Scatter Plot of Home Runs Wrigley Field
 Overlay Ballpark:
Without range rings   With range rings

2016 Season Home Runs for Wrigley Field
Click headers to sort
Date Video Path Hitter Hitter
Team
Pitcher Pitcher
Team
INN ^ Ballpark Type/
Luck
True
Dist.
Speed
Off
Bat
Elev.
Angle
Horiz.
Angle
Apex Impact Due To: Std.
Dist.
#
Parks
Wind Temp. Alt.
05/06/16 Video View Rendon, Anthony WSH Lackey, John CHC 1 Wrigley Fiel... PL 390 97.5 31.1 97.8 102 1 1 2 386 4
05/28/16 Video View Fowler, Dexter CHC Eickhoff, Jerad PHI 1 Wrigley Fiel... JE/L 379 95.2 34.3 94.7 114 5 1 2 371 0
06/01/16 Video View Hernandez, Enrique LAD Lester, Jon CHC 1 Wrigley Fiel... JE 365 95.9 28.3 106.2 76 1 1 1 363 2
06/04/16 Video View Lamb, Jake ARI Hammel, Jason CHC 1 Wrigley Fiel... PL 386 108.5 21.8 69.5 58 0 0 1 385 24
06/04/16 Video View Fowler, Dexter CHC Escobar, Edwin ARI 1 Wrigley Fiel... ND 404 104.5 27.1 107.7 85 -1 0 1 405 30
06/17/16 Video View Szczur, Matt CHC Liriano, Francisco PIT 1 Wrigley Fiel... PL 388 99.4 28.6 104.6 88 0 1 1 386 21
06/18/16 Video View Mercer, Jordy PIT Lester, Jon CHC 1 Wrigley Fiel... PL 391 104.6 24.5 108.5 68 0 0 1 390 30
07/06/16 Video View Cozart, Zack CIN Warren, Adam CHC 1 Wrigley Fiel... ND 425 105.1 24.7 95.2 79 1 1 1 423 26
07/07/16 Video View Markakis, Nick ATL Hammel, Jason CHC 1 Wrigley Fiel... PL 386 102.5 35.8 61.0 119 8 1 3 375 30
07/31/16 Video View Cruz, Nelson SEA Matusz, Brian CHC 1 Wrigley Fiel... ND 404 102.0 30.3 104.0 104 0 1 2 402 30
08/09/16 Video View Calhoun, Kole LAA Lackey, John CHC 1 Wrigley Fiel... JE 380 97.6 26.4 98.5 79 -1 1 1 379 1
08/17/16 Video View Soler, Jorge CHC Nelson, Jimmy MIL 1 Wrigley Fiel... ND 437 108.7 24.6 99.4 84 0 1 1 435 30
04/14/16 Video View Bryant, Kris CHC Iglesias, Raisel CIN 2 Wrigley Fiel... JE 369 100.7 24.6 108.0 66 -1 -1 0 370 9
04/28/16 Video View Ross, David CHC Jungmann, Taylor MIL 2 Wrigley Fiel... PL 402 107.1 29.5 108.3 112 -16 -4 2 422 30
05/06/16 Video View La Stella, Tommy CHC Scherzer, Max WSH 2 Wrigley Fiel... PL 400 102.4 27.1 76.3 88 -3 1 1 400 29
05/29/16 Video View Montero, Miguel CHC Velasquez, Vince PHI 2 Wrigley Fiel... ND 415 106.1 29.8 60.6 90 12 2 1 401 30
06/18/16 Video View Rizzo, Anthony CHC Niese, Jonathon PIT 2 Wrigley Fiel... PL 388 108.3 24.3 58.7 63 0 0 1 386 30
06/19/16 Video View Baez, Javier CHC Taillon, Jameson PIT 2 Wrigley Fiel... PL 394 101.0 28.1 102.2 96 -7 2 1 398 28
06/20/16 Video View Moss, Brandon STL Lackey, John CHC 2 Wrigley Fiel... PL 410 103.5 27.0 75.2 81 3 2 1 404 29
07/04/16 Video View Bryant, Kris CHC Reed, Cody CIN 2 Wrigley Fiel... PL 403 101.0 30.8 95.8 115 -6 1 2 406 18
07/04/16 Video View Contreras, Willson CHC Reed, Cody CIN 2 Wrigley Fiel... PL 389 103.3 33.4 108.1 126 -12 1 2 397 30
07/05/16 Video View Cozart, Zack CIN Lackey, John CHC 2 Wrigley Fiel... PL 385 96.7 32.7 102.3 103 6 3 2 375 4
07/31/16 Video View Cano, Robinson SEA Matusz, Brian CHC 2 Wrigley Fiel... PL 386 99.2 32.0 72.6 102 1 1 2 382 29
08/12/16 Video View Contreras, Willson CHC Wainwright, Adam STL 2 Wrigley Fiel... ND 416 107.9 22.2 99.4 68 0 0 0 415 30
08/13/16 Video View Russell, Addison CHC Weaver, Luke STL 2 Wrigley Fiel... PL 375 98.0 35.4 119.6 105 13 3 2 358 22
04/11/16 Video View Hamilton, Billy CIN Lester, Jon CHC 3 Wrigley Fiel... JE 361 98.3 32.0 111.3 102 -9 -4 1 373 29
05/06/16 Video View Zobrist, Ben CHC Scherzer, Max WSH 3 Wrigley Fiel... PL 378 99.5 31.6 67.0 99 -2 2 2 376 27
05/06/16 Video View Rizzo, Anthony CHC Scherzer, Max WSH 3 Wrigley Fiel... ND 404 108.3 34.2 59.1 124 -6 3 3 404 30
05/29/16 Video View Zobrist, Ben CHC Velasquez, Vince PHI 3 Wrigley Fiel... JE 369 101.9 24.6 66.6 61 2 0 1 366 10
06/01/16 Video View Bryant, Kris CHC Bolsinger, Mike LAD 3 Wrigley Fiel... PL 423 102.2 29.2 91.1 103 4 1 2 417 24
06/19/16 Video View Rizzo, Anthony CHC Taillon, Jameson PIT 3 Wrigley Fiel... PL 375 96.7 29.2 102.4 90 -4 2 1 375 3
06/19/16 Video View Bryant, Kris CHC Taillon, Jameson PIT 3 Wrigley Fiel... JE 367 104.4 24.7 122.3 61 -2 1 1 367 30
06/20/16 Video View Peralta, Jhonny STL Lackey, John CHC 3 Wrigley Fiel... PL 367 102.4 37.8 110.3 147 -9 4 4 368 23
06/21/16 Video View Carpenter, Matt STL Hammel, Jason CHC 3 Wrigley Fiel... JE 423 103.8 25.4 84.3 77 5 1 0 417 23
06/21/16 Video View Holliday, Matt STL Hammel, Jason CHC 3 Wrigley Fiel... ND 431 105.5 25.4 95.6 82 2 1 1 427 27
07/05/16 Video View Baez, Javier CHC Finnegan, Brandon CIN 3 Wrigley Fiel... PL 391 97.8 31.2 101.7 97 5 3 2 383 10
07/05/16 Video View Bryant, Kris CHC Finnegan, Brandon CIN 3 Wrigley Fiel... PL 398 105.9 25.9 114.0 72 0 1 1 395 30
07/05/16 Video View Russell, Addison CHC Finnegan, Brandon CIN 3 Wrigley Fiel... JE 382 103.7 21.8 100.7 57 -1 0 0 383 3
07/18/16 Video View Rizzo, Anthony CHC Matz, Steven NYM 3 Wrigley Fiel... PL 425 107.4 23.8 81.0 81 -2 1 1 425 29
07/20/16 Video View Rizzo, Anthony CHC Colon, Bartolo NYM 3 Wrigley Fiel... ND 447 108.4 28.4 80.1 109 0 3 2 442 30
07/29/16 Video View Heyward, Jason CHC Iwakuma, Hisashi SEA 3 Wrigley Fiel... JE/L 390 99.0 27.8 79.3 84 1 1 1 388 19
07/31/16 Video View Lee, Dae-Ho SEA Matusz, Brian CHC 3 Wrigley Fiel... PL 398 100.5 29.1 100.8 99 -3 1 1 399 25
08/09/16 Video View Contreras, Willson CHC Weaver, Jered LAA 3 Wrigley Fiel... ND 416 105.0 24.7 98.8 82 -2 1 1 416 29
08/17/16 Video View Ross, David CHC Nelson, Jimmy MIL 3 Wrigley Fiel... PL 394 103.3 30.8 115.7 97 -1 1 2 392 30
08/18/16 Video View Bryant, Kris CHC Davies, Zach MIL 3 Wrigley Fiel... ND 404 102.3 31.1 107.5 104 1 3 2 398 30
04/16/16 Video View Soler, Jorge CHC Bergman, Christian COL 4 Wrigley Fiel... PL 417 103.1 27.4 95.6 100 -1 -1 1 418 27
04/17/16 Video View Arenado, Nolan COL Lester, Jon CHC 4 Wrigley Fiel... JE 364 97.1 31.6 108.7 99 -8 -1 2 370 21
04/13/16 Video View Bryant, Kris CHC Sampson, Keyvius CIN 4 Wrigley Fiel... PL 394 108.9 25.7 122.2 71 -2 -2 1 397 30
04/16/16 Video View Rizzo, Anthony CHC Bergman, Christian COL 4 Wrigley Fiel... PL 381 100.1 31.5 65.7 95 3 -2 2 378 29
04/29/16 Video View Freeman, Freddie ATL Lester, Jon CHC 4 Wrigley Fiel... PL 398 101.8 30.0 74.1 99 1 -4 1 398 30
05/07/16 Video View Bryant, Kris CHC Gonzalez, Gio WSH 4 Wrigley Fiel... PL 401 99.9 33.0 106.6 110 17 -3 2 384 20
05/10/16 Video View Upton Jr., Melvin SD Lester, Jon CHC 4 Wrigley Fiel... JE 370 100.4 27.8 115.2 76 -1 -1 1 372 27
05/13/16 Video View Russell, Addison CHC Liriano, Francisco PIT 4 Wrigley Fiel... PL 385 100.5 38.4 106.4 140 22 0 4 361 4
05/14/16 Video View Rizzo, Anthony CHC Locke, Jeff PIT 4 Wrigley Fiel... PL/L 375 97.3 41.2 70.9 138 51 -8 4 327 0
05/27/16 Video View Soler, Jorge CHC Morgan, Adam PHI 4 Wrigley Fiel... ND 452 112.7 25.3 103.5 92 -2 1 1 452 30
05/27/16 Video View Ross, David CHC Morgan, Adam PHI 4 Wrigley Fiel... ND 410 105.5 28.9 110.0 96 -4 1 1 410 30
06/02/16 Video View Baez, Javier CHC Urias, Julio LAD 4 Wrigley Fiel... PL 401 106.1 27.0 116.0 77 1 1 1 398 30
06/19/16 Video View Harrison, Josh PIT Hendricks, Kyle CHC 4 Wrigley Fiel... JE 412 102.6 24.6 91.1 82 0 1 1 411 14
08/18/16 Video View Nieuwenhuis, Kirk MIL Arrieta, Jake CHC 4 Wrigley Fiel... JE 425 109.7 20.8 83.0 64 3 0 0 421 24
05/06/16 Video View Zobrist, Ben CHC Scherzer, Max WSH 5 Wrigley Fiel... PL 400 102.5 27.0 74.4 83 1 1 1 396 27
05/11/16 Video View Bethancourt, Christian SD Lackey, John CHC 5 Wrigley Fiel... ND 431 111.3 29.3 114.3 106 -1 -4 2 433 30
05/13/16 Video View Bryant, Kris CHC Liriano, Francisco PIT 5 Wrigley Fiel... JE 377 96.6 27.7 99.6 80 0 0 1 376 1
05/13/16 Video View Ross, David CHC Liriano, Francisco PIT 5 Wrigley Fiel... PL 396 98.2 29.0 97.5 87 6 0 1 390 2
05/27/16 Video View Bryant, Kris CHC Morgan, Adam PHI 5 Wrigley Fiel... PL 401 104.4 35.5 112.0 130 7 4 3 388 30
06/02/16 Video View Thompson, Trayce LAD Hendricks, Kyle CHC 5 Wrigley Fiel... JE/L 377 94.0 33.5 99.5 99 11 3 2 362 0
06/02/16 Video View Bryant, Kris CHC Urias, Julio LAD 5 Wrigley Fiel... ND 442 107.3 31.6 100.6 125 5 4 3 431 30
06/02/16 Video View Heyward, Jason CHC Urias, Julio LAD 5 Wrigley Fiel... JE 384 102.6 24.1 73.5 65 2 1 0 381 6
06/18/16 Video View Bryant, Kris CHC Niese, Jonathon PIT 5 Wrigley Fiel... ND 461 115.1 27.9 109.6 108 0 1 2 459 30
07/05/16 Video View Russell, Addison CHC Finnegan, Brandon CIN 5 Wrigley Fiel... JE 386 101.1 23.5 98.5 65 -1 1 0 386 2
07/06/16 Video View Zobrist, Ben CHC Desclafani, Anthony CIN 5 Wrigley Fiel... PL 382 101.8 30.9 58.7 89 -1 3 1 379 30
07/20/16 Video View Rizzo, Anthony CHC Colon, Bartolo NYM 5 Wrigley Fiel... ND 435 110.0 24.7 75.2 82 3 2 1 430 29
07/27/16 Video View Ranaudo, Anthony CHW Hammel, Jason CHC 5 Wrigley Fiel... JE 380 100.6 25.1 75.7 72 -2 1 0 381 13
08/09/16 Video View Bryant, Kris CHC Weaver, Jered LAA 5 Wrigley Fiel... ND 418 108.9 29.3 119.4 93 0 2 2 414 30
08/12/16 Video View Piscotty, Stephen STL Arrieta, Jake CHC 5 Wrigley Fiel... PL 427 102.1 31.6 83.5 115 14 2 2 410 22
05/14/16 Video View Russell, Addison CHC Locke, Jeff PIT 6 Wrigley Fiel... JE 370 97.0 31.2 109.5 92 4 -3 2 368 17
06/05/16 Video View Baez, Javier CHC Corbin, Patrick ARI 6 Wrigley Fiel... JE 372 95.7 31.4 69.1 85 9 1 1 360 10
06/18/16 Video View Ross, David CHC Niese, Jonathon PIT 6 Wrigley Fiel... PL 377 96.9 29.1 101.9 88 -1 1 1 377 3
06/19/16 Video View Contreras, Willson CHC Schugel, A.J. PIT 6 Wrigley Fiel... JE 417 104.0 24.1 87.2 80 -1 0 0 417 23
06/22/16 Video View Diaz, Aledmys STL Edwards Jr., Carl CHC 6 Wrigley Fiel... PL 411 101.9 26.8 95.2 91 -2 1 1 410 20
07/04/16 Video View Russell, Addison CHC Smith, Josh CIN 6 Wrigley Fiel... JE 366 102.7 26.3 122.8 66 -1 1 1 366 30
07/27/16 Video View Bryant, Kris CHC Ranaudo, Anthony CHW 6 Wrigley Fiel... PL 387 99.5 33.6 101.5 121 -5 2 2 387 20
07/29/16 Video View Ross, David CHC Karns, Nathan SEA 6 Wrigley Fiel... PL 382 96.8 31.9 99.8 106 0 2 2 379 1
08/11/16 Video View Moss, Brandon STL Lester, Jon CHC 6 Wrigley Fiel... PL 433 105.5 32.0 79.6 124 5 4 2 422 30
08/12/16 Video View Szczur, Matt CHC Williams, Jerome STL 6 Wrigley Fiel... ND 417 102.7 26.5 95.5 88 2 0 1 414 29
08/12/16 Video View Soler, Jorge CHC Williams, Jerome STL 6 Wrigley Fiel... JE/L 386 97.7 26.2 94.1 80 0 0 1 385 1
08/13/16 Video View Moss, Brandon STL Hendricks, Kyle CHC 6 Wrigley Fiel... ND 424 106.1 27.3 74.8 88 3 1 1 419 30
08/16/16 Video View Baez, Javier CHC Scahill, Rob MIL 6 Wrigley Fiel... ND 412 102.2 29.0 98.5 102 -1 1 2 411 28
08/18/16 Video View Perez, Hernan MIL Arrieta, Jake CHC 6 Wrigley Fiel... PL 390 96.4 32.0 100.6 97 10 3 2 376 4
08/18/16 Video View Bryant, Kris CHC Boyer, Blaine MIL 6 Wrigley Fiel... PL 423 102.4 31.3 87.9 118 2 3 2 415 24
04/16/16 Video View Fowler, Dexter CHC Hale, David COL 7 Wrigley Fiel... PL 397 102.6 26.1 76.6 81 -1 -1 1 398 29
05/11/16 Video View Wallace, Brett SD Strop, Pedro CHC 7 Wrigley Fiel... PL 377 97.5 33.1 101.1 114 -2 -3 2 380 5
05/29/16 Video View Goeddel, Tyler PHI Lackey, John CHC 7 Wrigley Fiel... JE/L 387 96.6 34.7 96.8 116 9 3 2 374 0
06/19/16 Video View Russell, Addison CHC Rondon, Jorge PIT 7 Wrigley Fiel... JE 375 98.6 25.9 103.5 71 -1 1 0 374 3
06/22/16 Video View Contreras, Willson CHC Wacha, Michael STL 7 Wrigley Fiel... JE/L 394 103.5 21.1 95.2 62 3 0 0 390 0
07/04/16 Video View Cozart, Zack CIN Wood, Travis CHC 7 Wrigley Fiel... JE 358 96.5 33.6 114.5 101 -3 1 2 359 20
07/04/16 Video View Suarez, Eugenio CIN Wood, Travis CHC 7 Wrigley Fiel... JE 387 97.5 28.5 96.9 90 -1 0 1 386 1
07/06/16 Video View Barnhart, Tucker CIN Cahill, Trevor CHC 7 Wrigley Fiel... JE 391 97.5 28.7 95.6 89 0 3 1 387 1
07/18/16 Video View Flores, Wilmer NYM Lester, Jon CHC 7 Wrigley Fiel... JE 384 102.2 22.1 98.0 62 1 0 0 383 0
07/27/16 Video View Baez, Javier CHC Ranaudo, Anthony CHW 7 Wrigley Fiel... ND 406 103.3 30.9 106.2 108 -3 2 2 405 30
08/03/16 Video View Mathis, Jeff MIA Lackey, John CHC 7 Wrigley Fiel... JE 379 105.8 20.6 103.5 55 3 0 0 375 1
08/11/16 Video View Grichuk, Randal STL Wood, Travis CHC 7 Wrigley Fiel... JE/L 366 93.9 30.9 103.3 87 3 2 1 360 0
08/12/16 Video View Baez, Javier CHC Williams, Jerome STL 7 Wrigley Fiel... ND 386 101.8 29.1 116.2 82 0 0 0 386 30
08/12/16 Video View Szczur, Matt CHC Williams, Jerome STL 7 Wrigley Fiel... PL 372 96.1 30.1 105.6 86 0 0 0 372 13
08/13/16 Video View Gyorko, Jedd STL Hendricks, Kyle CHC 7 Wrigley Fiel... PL 378 100.3 33.2 117.6 103 0 2 2 375 30
04/11/16 Video View Russell, Addison CHC Diaz, Jumbo CIN 8 Wrigley Fiel... JE 371 96.3 29.7 102.8 92 0 -3 1 373 1
04/29/16 Video View Szczur, Matt CHC Withrow, Chris ATL 8 Wrigley Fiel... PL 367 96.7 32.7 105.8 108 -2 -4 2 371 9
05/05/16 Video View Zobrist, Ben CHC Rivero, Felipe WSH 8 Wrigley Fiel... PL 397 101.1 28.3 102.5 92 0 -3 1 398 30
05/06/16 Video View Ramos, Wilson WSH Grimm, Justin CHC 8 Wrigley Fiel... ND 436 108.3 24.0 97.7 80 0 1 0 435 30
05/10/16 Video View Dickerson, Alex SD Warren, Adam CHC 8 Wrigley Fiel... PL 396 102.9 25.7 75.5 78 0 -1 1 396 27
06/02/16 Video View Rizzo, Anthony CHC Howell, J.P. LAD 8 Wrigley Fiel... JE 409 103.9 22.4 92.9 69 1 0 0 407 3
06/04/16 Video View Tomas, Yasmany ARI Strop, Pedro CHC 8 Wrigley Fiel... JE 370 104.2 25.3 123.1 62 0 0 1 369 30
06/04/16 Video View Rizzo, Anthony CHC Hudson, Daniel ARI 8 Wrigley Fiel... JE 414 107.0 22.2 81.9 69 0 -1 0 414 27
07/17/16 Video View Desmond, Ian TEX Lackey, John CHC 8 Wrigley Fiel... PL/L 376 100.5 36.9 121.2 119 10 2 3 362 30
07/20/16 Video View Flores, Wilmer NYM Wood, Travis CHC 8 Wrigley Fiel... PL 384 99.6 33.8 115.2 104 6 4 2 372 30
07/27/16 Video View Russell, Addison CHC Turner, Jacob CHW 8 Wrigley Fiel... PL 395 100.4 25.9 97.7 82 -2 0 1 396 8
08/03/16 Video View Yelich, Christian MIA Smith, Joe CHC 8 Wrigley Fiel... JE 375 109.6 20.7 66.3 51 -1 1 0 373 18
08/10/16 Video View Russell, Addison CHC Ramirez, JC LAA 8 Wrigley Fiel... PL 401 101.9 32.9 97.2 129 -9 3 2 405 23
08/12/16 Video View Gyorko, Jedd STL Smith, Joe CHC 8 Wrigley Fiel... ND 418 105.9 24.9 100.5 81 0 0 0 418 30
08/13/16 Video View Grichuk, Randal STL Smith, Joe CHC 8 Wrigley Fiel... JE 387 101.3 23.3 98.7 63 1 0 1 385 1
08/14/16 Video View Piscotty, Stephen STL Rondon, Hector CHC 8 Wrigley Fiel... ND 432 105.2 26.9 94.9 96 1 1 1 430 29
08/14/16 Video View Moss, Brandon STL Rondon, Hector CHC 8 Wrigley Fiel... JE 372 95.7 30.1 103.2 88 1 0 1 369 1
08/14/16 Video View Rizzo, Anthony CHC Siegrist, Kevin STL 8 Wrigley Fiel... PL 396 104.0 34.4 61.4 115 5 2 2 387 30
04/16/16 Video View Gonzalez, Carlos COL Wood, Travis CHC 9 Wrigley Fiel... PL 389 101.0 25.7 102.1 78 0 -1 0 390 18
04/17/16 Video View Arenado, Nolan COL Grimm, Justin CHC 9 Wrigley Fiel... PL 393 100.7 30.5 104.8 103 -3 0 2 394 30
05/05/16 Video View Werth, Jayson WSH Wood, Travis CHC 9 Wrigley Fiel... PL 395 103.2 32.1 109.1 114 -1 -5 2 399 30
05/13/16 Video View McCutchen, Andrew PIT Cahill, Trevor CHC 9 Wrigley Fiel... JE/L 367 96.3 38.5 100.4 133 14 -1 3 351 0
05/15/16 Video View Kang, Jung Ho PIT Rondon, Hector CHC 9 Wrigley Fiel... PL 384 97.4 30.4 98.5 101 0 -3 1 385 3
05/29/16 Video View Joseph, Tommy PHI Grimm, Justin CHC 9 Wrigley Fiel... JE 413 104.3 22.6 90.6 71 0 0 0 412 14
05/31/16 Video View Seager, Corey LAD Cahill, Trevor CHC 9 Wrigley Fiel... PL 401 109.0 24.5 64.9 70 -1 0 1 402 30
07/05/16 Video View Bruce, Jay CIN Strop, Pedro CHC 9 Wrigley Fiel... JE 367 96.5 31.3 109.4 93 -4 3 1 366 16
07/07/16 Video View Markakis, Nick ATL Rondon, Hector CHC 9 Wrigley Fiel... JE 379 109.4 20.5 70.7 51 0 0 0 379 16
08/16/16 Video View Perez, Hernan MIL Wood, Travis CHC 9 Wrigley Fiel... JE 361 100.1 38.1 113.6 134 0 3 3 355 21
05/08/16 Video View Baez, Javier CHC Treinen, Blake WSH 13 Wrigley Fiel... ND 416 110.0 21.0 99.7 64 0 0 0 416 29


About HitTracker | Contact Us
© 2006-2016 HitTrackerOnline